createdAt,value
2018-07-25T00:01:39.741Z,99.90
2018-07-25T00:04:07.871Z,99.90
2018-07-25T00:06:35.947Z,99.90
2018-07-25T00:09:06.208Z,99.90
2018-07-25T00:11:34.299Z,99.90
2018-07-25T00:14:02.430Z,99.90
2018-07-25T00:16:30.527Z,99.90
2018-07-25T00:18:58.643Z,99.90
2018-07-25T00:21:26.921Z,99.90
2018-07-25T00:23:54.988Z,99.90
2018-07-25T00:26:23.089Z,99.90
2018-07-25T00:28:51.193Z,99.90
2018-07-25T00:31:19.301Z,99.90
2018-07-25T00:33:47.401Z,99.90
2018-07-25T00:36:15.501Z,99.90
2018-07-25T00:38:43.591Z,99.90
2018-07-25T00:41:11.690Z,99.90
2018-07-25T00:43:39.800Z,99.90
2018-07-25T00:46:08.556Z,99.90
2018-07-25T00:48:36.696Z,99.90
2018-07-25T00:51:04.821Z,99.90
2018-07-25T00:53:32.932Z,99.90
2018-07-25T00:56:01.062Z,99.90
2018-07-25T00:58:29.205Z,99.90
2018-07-25T01:00:57.351Z,99.90
2018-07-25T01:03:25.458Z,99.90
2018-07-25T01:05:53.618Z,99.90
2018-07-25T01:08:21.750Z,99.90
2018-07-25T01:10:49.878Z,99.90
2018-07-25T01:13:17.991Z,99.90
2018-07-25T01:15:46.140Z,99.90
2018-07-25T01:18:14.269Z,99.90
2018-07-25T01:20:42.401Z,99.90
2018-07-25T01:23:10.516Z,99.90
2018-07-25T01:25:38.634Z,99.90
2018-07-25T01:28:06.776Z,99.90
2018-07-25T01:30:34.928Z,99.90
2018-07-25T01:33:03.057Z,99.90
2018-07-25T01:35:31.179Z,99.90
2018-07-25T01:37:59.296Z,99.90
2018-07-25T01:40:27.419Z,99.90
2018-07-25T01:42:55.541Z,99.90
2018-07-25T01:45:23.683Z,99.90
2018-07-25T01:47:51.831Z,99.90
2018-07-25T01:50:19.997Z,99.90
2018-07-25T01:55:16.027Z,99.90
2018-07-25T01:57:44.164Z,99.90
2018-07-25T02:00:12.288Z,99.90
2018-07-25T02:02:40.416Z,99.90
2018-07-25T02:05:08.550Z,99.90
2018-07-25T02:07:36.688Z,99.90
2018-07-25T02:10:05.777Z,99.90
2018-07-25T02:12:34.158Z,99.90
2018-07-25T02:15:02.276Z,99.90
2018-07-25T02:17:30.411Z,99.90
2018-07-25T02:19:58.552Z,99.90
2018-07-25T02:22:26.676Z,99.90
2018-07-25T02:24:54.801Z,99.90
2018-07-25T02:27:22.930Z,99.90
2018-07-25T02:29:51.196Z,99.90
2018-07-25T02:32:19.339Z,99.90
2018-07-25T02:34:47.438Z,99.90
2018-07-25T02:37:15.568Z,99.90
2018-07-25T02:39:44.074Z,99.90
2018-07-25T02:45:05.125Z,99.90
2018-07-25T02:47:33.256Z,99.90
2018-07-25T02:50:01.374Z,99.90
2018-07-25T02:52:29.558Z,99.90
2018-07-25T02:54:57.704Z,99.90
2018-07-25T02:57:25.840Z,99.90
2018-07-25T02:59:53.961Z,99.90
2018-07-25T03:02:22.084Z,99.90
2018-07-25T03:04:50.197Z,99.90
2018-07-25T03:07:18.345Z,99.90
2018-07-25T03:09:46.477Z,99.90
2018-07-25T03:12:14.618Z,99.90
2018-07-25T03:14:42.732Z,99.90
2018-07-25T03:17:10.859Z,99.90
2018-07-25T03:19:39.045Z,99.90
2018-07-25T03:22:07.168Z,99.90
2018-07-25T03:24:35.265Z,99.90
2018-07-25T03:27:03.361Z,99.90
2018-07-25T03:29:31.454Z,99.90
2018-07-25T03:31:59.591Z,99.90
2018-07-25T03:34:27.662Z,99.90
2018-07-25T03:36:55.796Z,99.90
2018-07-25T03:39:23.891Z,99.90
2018-07-25T03:41:51.989Z,99.90
2018-07-25T03:44:20.144Z,99.90
2018-07-25T03:46:48.250Z,99.90
2018-07-25T03:49:16.364Z,99.90
2018-07-25T03:51:44.478Z,99.90
2018-07-25T03:54:12.570Z,99.90
2018-07-25T03:56:40.696Z,99.90
2018-07-25T03:59:08.808Z,99.90
2018-07-25T04:01:36.971Z,99.90
2018-07-25T04:04:05.064Z,99.90
2018-07-25T04:06:33.177Z,99.90
2018-07-25T04:09:01.292Z,99.90
2018-07-25T04:13:57.267Z,99.90
2018-07-25T04:16:25.386Z,99.90
2018-07-25T04:18:53.505Z,99.90
2018-07-25T04:21:21.633Z,99.90
2018-07-25T04:23:49.745Z,99.90
2018-07-25T04:26:17.850Z,99.90
2018-07-25T04:28:45.956Z,99.90
2018-07-25T04:31:14.068Z,99.90
2018-07-25T04:33:42.200Z,99.90
2018-07-25T04:36:10.312Z,99.90
2018-07-25T04:38:38.448Z,99.90
2018-07-25T04:41:06.584Z,99.90
2018-07-25T04:43:34.687Z,99.90
2018-07-25T04:48:30.795Z,99.90
2018-07-25T04:50:58.968Z,99.90
2018-07-25T04:53:27.099Z,99.90
2018-07-25T04:55:55.228Z,99.90
2018-07-25T04:58:23.335Z,99.90
2018-07-25T05:00:51.475Z,99.90
2018-07-25T05:03:19.594Z,99.90
2018-07-25T05:05:47.732Z,99.90
2018-07-25T05:08:15.854Z,99.90
2018-07-25T05:10:43.951Z,99.90
2018-07-25T05:13:12.063Z,99.90
2018-07-25T05:15:40.200Z,99.90
2018-07-25T05:18:08.308Z,99.90
2018-07-25T05:20:36.442Z,99.90
2018-07-25T05:23:04.583Z,99.90
2018-07-25T05:25:32.711Z,99.90
2018-07-25T05:28:00.819Z,99.90
2018-07-25T05:32:57.060Z,99.90
2018-07-25T05:35:25.180Z,99.90
2018-07-25T05:37:53.326Z,99.90
2018-07-25T05:40:21.472Z,99.90
2018-07-25T05:42:49.619Z,99.90
2018-07-25T05:45:17.741Z,99.90
2018-07-25T05:47:45.871Z,99.90
2018-07-25T05:50:13.988Z,99.90
2018-07-25T05:52:42.135Z,99.90
2018-07-25T05:55:10.236Z,99.90
2018-07-25T05:57:38.375Z,99.90
2018-07-25T06:00:06.505Z,99.90
2018-07-25T06:02:34.641Z,99.90
2018-07-25T06:05:02.847Z,99.90
2018-07-25T06:07:30.918Z,99.90
2018-07-25T06:09:59.060Z,99.90
2018-07-25T06:12:27.172Z,99.90
2018-07-25T06:14:55.287Z,99.90
2018-07-25T06:17:23.426Z,99.90
2018-07-25T06:19:51.656Z,99.90
2018-07-25T06:22:20.049Z,99.90
2018-07-25T06:24:48.263Z,99.90
2018-07-25T06:27:16.411Z,99.90
2018-07-25T06:29:44.596Z,99.90
2018-07-25T06:32:12.752Z,99.90
2018-07-25T06:34:40.983Z,99.40
2018-07-25T06:37:09.986Z,99.00
2018-07-25T06:39:38.113Z,99.70
2018-07-25T06:42:06.281Z,98.00
2018-07-25T06:44:34.424Z,97.00
2018-07-25T06:52:23.776Z,96.50
2018-07-25T06:54:51.939Z,95.30
2018-07-25T06:57:20.099Z,94.70
2018-07-25T06:59:48.201Z,95.50
2018-07-25T07:02:16.340Z,94.50
2018-07-25T07:04:44.519Z,95.20
2018-07-25T07:07:12.725Z,93.60
2018-07-25T07:09:40.854Z,93.70
2018-07-25T07:12:09.006Z,93.00
2018-07-25T07:14:37.140Z,93.00
2018-07-25T07:17:05.263Z,93.30
2018-07-25T07:19:33.443Z,93.30
2018-07-25T07:22:01.568Z,92.70
2018-07-25T07:24:29.719Z,92.70
2018-07-25T07:26:57.866Z,91.10
2018-07-25T07:29:25.989Z,92.00
2018-07-25T07:31:54.104Z,90.70
2018-07-25T07:34:22.256Z,90.70
2018-07-25T07:36:50.403Z,91.10
2018-07-25T07:39:18.540Z,91.00
2018-07-25T07:41:46.691Z,90.80
2018-07-25T07:44:14.921Z,90.20
2018-07-25T07:46:43.012Z,88.30
2018-07-25T07:49:11.153Z,89.80
2018-07-25T07:51:39.304Z,89.30
2018-07-25T07:54:07.519Z,87.90
2018-07-25T07:56:35.639Z,84.80
2018-07-25T07:59:03.791Z,86.30
2018-07-25T08:03:59.865Z,84.80
2018-07-25T08:06:27.979Z,84.60
2018-07-25T08:08:56.464Z,83.50
2018-07-25T08:11:24.661Z,83.20
2018-07-25T08:13:52.782Z,83.60
2018-07-25T08:16:20.979Z,82.60
2018-07-25T08:18:49.121Z,82.70
2018-07-25T08:21:17.616Z,82.20
2018-07-25T08:23:45.723Z,80.70
2018-07-25T08:26:13.841Z,80.60
2018-07-25T08:28:41.941Z,80.70
2018-07-25T08:31:10.085Z,80.20
2018-07-25T08:33:38.203Z,79.70
2018-07-25T08:36:06.355Z,78.30
2018-07-25T08:38:44.189Z,78.20
2018-07-25T08:41:12.407Z,78.40
2018-07-25T08:43:41.587Z,78.20
2018-07-25T08:46:10.886Z,77.10
2018-07-25T08:48:39.452Z,76.40
2018-07-25T08:51:07.593Z,75.70
2018-07-25T08:53:36.244Z,75.60
2018-07-25T08:56:04.557Z,77.70
2018-07-25T08:58:32.683Z,76.50
2018-07-25T09:01:01.254Z,75.10
2018-07-25T09:03:29.385Z,76.90
2018-07-25T09:05:57.501Z,73.90
2018-07-25T09:08:25.813Z,74.00
2018-07-25T09:10:53.934Z,74.20
2018-07-25T09:13:22.204Z,75.00
2018-07-25T09:15:50.371Z,74.30
2018-07-25T09:18:18.489Z,72.80
2018-07-25T09:23:14.494Z,73.70
2018-07-25T09:25:42.625Z,74.40
2018-07-25T09:28:10.704Z,73.60
2018-07-25T09:30:38.815Z,73.30
2018-07-25T09:33:06.939Z,71.00
2018-07-25T09:35:35.072Z,73.20
2018-07-25T09:38:03.251Z,72.10
2018-07-25T09:40:31.449Z,71.20
2018-07-25T09:42:59.603Z,70.20
2018-07-25T09:45:27.758Z,71.60
2018-07-25T09:47:55.824Z,70.50
2018-07-25T09:50:23.959Z,69.90
2018-07-25T09:52:52.120Z,71.00
2018-07-25T09:55:20.176Z,69.80
2018-07-25T09:57:48.289Z,68.80
2018-07-25T10:00:22.094Z,69.10
2018-07-25T10:02:50.227Z,69.50
2018-07-25T10:05:18.310Z,69.10
2018-07-25T10:07:46.515Z,69.70
2018-07-25T10:10:14.518Z,69.20
2018-07-25T10:12:42.652Z,68.80
2018-07-25T10:15:10.648Z,68.00
2018-07-25T10:17:38.720Z,66.10
2018-07-25T10:20:06.885Z,67.20
2018-07-25T10:22:35.015Z,67.20
2018-07-25T10:25:03.126Z,66.50
2018-07-25T10:27:31.328Z,66.20
2018-07-25T10:29:59.376Z,66.00
2018-07-25T10:32:27.479Z,67.00
2018-07-25T10:34:55.591Z,66.60
2018-07-25T10:37:23.777Z,67.00
2018-07-25T10:39:51.860Z,67.10
2018-07-25T10:42:19.963Z,67.20
2018-07-25T10:44:48.069Z,68.00
2018-07-25T10:47:16.205Z,66.50
2018-07-25T10:49:44.324Z,67.60
2018-07-25T10:52:12.426Z,67.50
2018-07-25T10:54:40.528Z,65.50
2018-07-25T10:57:08.641Z,66.90
2018-07-25T10:59:36.746Z,65.90
2018-07-25T11:02:04.934Z,65.20
2018-07-25T11:04:33.088Z,66.70
2018-07-25T11:07:01.341Z,64.50
2018-07-25T11:09:29.407Z,64.00
2018-07-25T11:11:57.495Z,64.00
2018-07-25T11:16:53.553Z,64.90
2018-07-25T11:19:21.719Z,64.30
2018-07-25T11:21:49.816Z,65.40
2018-07-25T11:24:17.920Z,64.40
2018-07-25T11:26:46.035Z,65.60
2018-07-25T11:29:14.257Z,65.80
2018-07-25T11:31:42.375Z,65.80
2018-07-25T11:34:10.477Z,66.20
2018-07-25T11:36:38.604Z,67.20
2018-07-25T11:39:08.925Z,66.70
2018-07-25T11:41:37.063Z,65.70
2018-07-25T11:44:05.176Z,66.60
2018-07-25T11:46:33.283Z,65.80
2018-07-25T11:49:01.388Z,66.20
2018-07-25T11:51:29.499Z,65.20
2018-07-25T11:53:57.612Z,65.20
2018-07-25T11:56:25.705Z,64.10
2018-07-25T11:58:53.813Z,63.70
2018-07-25T12:01:21.935Z,64.50
2018-07-25T12:03:50.024Z,64.40
2018-07-25T12:06:18.131Z,62.90
2018-07-25T12:08:46.240Z,62.90
2018-07-25T12:11:14.385Z,62.30
2018-07-25T12:13:42.495Z,63.10
2018-07-25T12:16:10.608Z,62.90
2018-07-25T12:18:38.728Z,61.30
2018-07-25T12:21:07.208Z,61.90
2018-07-25T12:23:35.304Z,63.70
2018-07-25T12:26:03.502Z,61.00
2018-07-25T12:28:31.633Z,63.00
2018-07-25T12:33:27.692Z,61.90
2018-07-25T12:35:55.854Z,63.00
2018-07-25T12:38:23.981Z,62.80
2018-07-25T12:40:52.285Z,61.20
2018-07-25T12:43:20.395Z,60.70
2018-07-25T12:45:48.513Z,61.80
2018-07-25T12:48:16.749Z,61.70
2018-07-25T12:50:44.959Z,60.70
2018-07-25T12:53:13.084Z,61.50
2018-07-25T12:55:41.202Z,61.10
2018-07-25T12:58:09.324Z,62.40
2018-07-25T13:00:37.448Z,61.30
2018-07-25T13:03:06.647Z,62.10
2018-07-25T13:05:34.740Z,60.60
2018-07-25T13:08:02.858Z,59.70
2018-07-25T13:10:30.988Z,59.50
2018-07-25T13:12:59.088Z,59.00
2018-07-25T13:15:27.199Z,59.20
2018-07-25T13:17:55.317Z,59.60
2018-07-25T13:20:23.464Z,60.40
2018-07-25T13:22:51.588Z,60.20
2018-07-25T13:25:19.952Z,60.30
2018-07-25T13:27:48.073Z,59.20
2018-07-25T13:30:16.186Z,59.10
2018-07-25T13:32:44.315Z,58.00
2018-07-25T13:35:12.436Z,59.30
2018-07-25T13:37:40.579Z,59.50
2018-07-25T13:40:08.676Z,59.10
2018-07-25T13:42:36.781Z,58.90
2018-07-25T13:45:05.166Z,59.10
2018-07-25T13:47:33.292Z,59.90
2018-07-25T13:50:01.392Z,58.60
2018-07-25T13:52:29.523Z,58.40
2018-07-25T13:54:57.649Z,58.40
2018-07-25T13:57:25.788Z,58.40
2018-07-25T13:59:53.971Z,58.80
2018-07-25T14:02:22.127Z,58.80
2018-07-25T14:04:50.234Z,58.30
2018-07-25T14:07:18.366Z,59.10
2018-07-25T14:09:46.495Z,59.00
2018-07-25T14:12:14.718Z,58.60
2018-07-25T14:14:42.736Z,59.10
2018-07-25T14:17:10.903Z,58.00
2018-07-25T14:19:39.011Z,59.30
2018-07-25T14:22:07.182Z,59.70
2018-07-25T14:24:35.346Z,59.70
2018-07-25T14:27:03.516Z,58.00
2018-07-25T14:29:31.727Z,58.20
2018-07-25T14:31:59.761Z,57.30
2018-07-25T14:34:27.888Z,58.10
2018-07-25T14:36:56.078Z,59.20
2018-07-25T14:39:24.196Z,58.50
2018-07-25T14:41:52.296Z,58.20
2018-07-25T14:44:20.497Z,58.60
2018-07-25T14:46:48.686Z,58.60
2018-07-25T14:49:16.782Z,58.50
2018-07-25T14:51:44.928Z,57.90
2018-07-25T14:54:13.067Z,58.90
2018-07-25T14:56:41.216Z,57.80
2018-07-25T14:59:09.325Z,57.40
2018-07-25T15:01:37.425Z,58.00
2018-07-25T15:04:05.719Z,57.70
2018-07-25T15:06:33.847Z,57.10
2018-07-25T15:09:01.957Z,56.90
2018-07-25T15:11:30.066Z,58.40
2018-07-25T15:13:58.163Z,59.10
2018-07-25T15:16:26.389Z,59.60
2018-07-25T15:18:54.504Z,58.10
2018-07-25T15:21:22.624Z,59.00
2018-07-25T15:23:56.252Z,58.10
2018-07-25T15:26:24.417Z,57.90
2018-07-25T15:28:52.519Z,58.90
2018-07-25T15:31:20.624Z,58.20
2018-07-25T15:33:48.886Z,57.30
2018-07-25T15:36:49.271Z,55.50
2018-07-25T15:39:25.198Z,56.20
2018-07-25T15:41:54.243Z,56.10
2018-07-25T15:44:23.210Z,54.60
2018-07-25T15:46:51.398Z,55.30
2018-07-25T15:49:19.606Z,55.40
2018-07-25T15:51:47.735Z,53.80
2018-07-25T15:54:15.868Z,55.30
2018-07-25T15:56:44.020Z,53.90
2018-07-25T15:59:12.217Z,53.60
2018-07-25T16:01:40.415Z,54.60
2018-07-25T16:04:08.608Z,53.60
2018-07-25T16:06:36.720Z,53.50
2018-07-25T16:09:07.664Z,53.20
2018-07-25T16:11:35.777Z,54.20
2018-07-25T16:14:03.982Z,54.90
2018-07-25T16:16:32.137Z,54.50
2018-07-25T16:19:00.258Z,54.00
2018-07-25T16:21:28.386Z,54.80
2018-07-25T16:23:57.434Z,54.40
2018-07-25T16:26:25.647Z,56.00
2018-07-25T16:28:53.827Z,56.10
2018-07-25T16:31:21.958Z,56.70
2018-07-25T16:33:50.083Z,56.70
2018-07-25T16:36:18.215Z,57.30
2018-07-25T16:38:46.319Z,57.50
2018-07-25T16:41:14.576Z,57.70
2018-07-25T16:43:42.725Z,58.40
2018-07-25T16:46:10.839Z,58.60
2018-07-25T16:48:38.943Z,59.20
2018-07-25T16:51:07.077Z,59.30
2018-07-25T16:53:35.183Z,59.60
2018-07-25T16:56:03.318Z,60.00
2018-07-25T16:58:31.408Z,59.70
2018-07-25T17:00:59.518Z,59.90
2018-07-25T17:03:27.623Z,60.00
2018-07-25T17:05:55.738Z,60.00
2018-07-25T17:08:23.876Z,59.50
2018-07-25T17:10:52.016Z,60.00
2018-07-25T17:13:21.003Z,60.10
2018-07-25T17:15:49.123Z,61.10
2018-07-25T17:18:21.440Z,61.50
2018-07-25T17:20:50.868Z,60.30
2018-07-25T17:23:19.079Z,61.90
2018-07-25T17:25:47.256Z,61.00
2018-07-25T17:28:15.381Z,62.30
2018-07-25T17:30:43.964Z,62.40
2018-07-25T17:33:12.085Z,62.60
2018-07-25T17:35:40.232Z,62.10
2018-07-25T17:38:08.340Z,62.10
2018-07-25T17:40:36.481Z,62.90
2018-07-25T17:43:04.561Z,61.90
2018-07-25T17:45:32.675Z,63.20
2018-07-25T17:48:00.789Z,62.90
2018-07-25T17:50:28.891Z,63.70
2018-07-25T17:52:57.010Z,63.20
2018-07-25T17:55:25.130Z,63.70
2018-07-25T17:57:53.282Z,64.30
2018-07-25T18:00:21.368Z,63.70
2018-07-25T18:02:49.455Z,64.60
2018-07-25T18:05:17.591Z,64.90
2018-07-25T18:07:45.705Z,65.10
2018-07-25T18:10:13.818Z,64.10
2018-07-25T18:12:41.964Z,65.10
2018-07-25T18:15:10.297Z,64.50
2018-07-25T18:17:38.476Z,65.20
2018-07-25T18:20:06.849Z,65.70
2018-07-25T18:22:34.968Z,66.10
2018-07-25T18:25:03.118Z,65.80
2018-07-25T18:27:31.296Z,65.70
2018-07-25T18:29:59.424Z,67.10
2018-07-25T18:32:27.575Z,67.60
2018-07-25T18:34:55.691Z,67.60
2018-07-25T18:37:23.836Z,68.30
2018-07-25T18:39:52.009Z,68.90
2018-07-25T18:42:20.127Z,69.80
2018-07-25T18:47:16.233Z,70.90
2018-07-25T18:49:44.345Z,70.50
2018-07-25T18:52:12.494Z,70.70
2018-07-25T18:54:40.626Z,71.00
2018-07-25T18:57:08.759Z,71.50
2018-07-25T18:59:36.867Z,71.90
2018-07-25T19:02:05.082Z,72.50
2018-07-25T19:04:33.210Z,73.00
2018-07-25T19:07:01.351Z,73.30
2018-07-25T19:09:29.436Z,73.50
2018-07-25T19:11:57.581Z,73.70
2018-07-25T19:14:30.957Z,74.80
2018-07-25T19:16:59.106Z,74.80
2018-07-25T19:19:27.227Z,75.70
2018-07-25T19:21:55.394Z,76.30
2018-07-25T19:24:23.502Z,77.00
2018-07-25T19:26:51.641Z,77.90
2018-07-25T19:29:19.788Z,79.20
2018-07-25T19:31:47.915Z,80.20
2018-07-25T19:34:16.032Z,80.80
2018-07-25T19:36:44.151Z,81.80
2018-07-25T19:39:12.284Z,82.00
2018-07-25T19:41:40.407Z,82.80
2018-07-25T19:44:08.583Z,84.10
2018-07-25T19:46:36.708Z,85.00
2018-07-25T19:49:04.964Z,88.40
2018-07-25T19:51:33.074Z,89.00
2018-07-25T19:54:01.211Z,88.10
2018-07-25T19:56:29.334Z,87.60
2018-07-25T19:58:57.447Z,87.30
2018-07-25T20:01:25.641Z,87.80
2018-07-25T20:03:53.776Z,87.80
2018-07-25T20:06:21.941Z,88.00
2018-07-25T20:08:50.192Z,88.30
2018-07-25T20:11:18.325Z,89.50
2018-07-25T20:16:28.239Z,90.40
2018-07-25T20:18:56.350Z,90.90
2018-07-25T20:21:24.435Z,90.80
2018-07-25T20:23:52.612Z,90.80
2018-07-25T20:26:20.679Z,90.90
2018-07-25T20:28:48.768Z,90.90
2018-07-25T20:31:17.113Z,91.00
2018-07-25T20:33:45.227Z,91.10
2018-07-25T20:36:13.323Z,91.30
2018-07-25T20:38:41.422Z,91.60
2018-07-25T20:41:09.560Z,91.70
2018-07-25T20:43:37.674Z,91.60
2018-07-25T20:46:05.829Z,91.50
2018-07-25T20:48:33.960Z,91.40
2018-07-25T20:51:02.048Z,91.60
2018-07-25T20:53:30.159Z,92.60
2018-07-25T20:55:58.264Z,92.60
2018-07-25T20:58:26.464Z,92.60
2018-07-25T21:00:54.651Z,92.60
2018-07-25T21:03:22.757Z,92.70
2018-07-25T21:05:50.883Z,93.40
2018-07-25T21:08:19.032Z,94.10
2018-07-25T21:10:47.205Z,94.20
2018-07-25T21:13:15.309Z,94.30
2018-07-25T21:15:43.405Z,94.30
2018-07-25T21:18:11.516Z,93.90
2018-07-25T21:20:39.733Z,92.90
2018-07-25T21:23:07.873Z,92.50
2018-07-25T21:25:35.998Z,92.70
2018-07-25T21:28:04.154Z,92.80
2018-07-25T21:30:32.288Z,93.10
2018-07-25T21:33:00.463Z,93.80
2018-07-25T21:35:28.659Z,93.80
2018-07-25T21:37:56.779Z,93.90
2018-07-25T21:40:24.907Z,94.00
2018-07-25T21:42:53.165Z,94.10
2018-07-25T21:45:21.311Z,94.20
2018-07-25T21:47:49.431Z,94.10
2018-07-25T21:50:17.549Z,94.20
2018-07-25T21:52:45.655Z,93.90
2018-07-25T21:55:13.778Z,94.00
2018-07-25T21:57:41.948Z,94.00
2018-07-25T22:00:14.514Z,94.10
2018-07-25T22:02:43.608Z,94.30
2018-07-25T22:05:11.989Z,94.50
2018-07-25T22:07:40.115Z,94.80
2018-07-25T22:10:08.640Z,95.30
2018-07-25T22:12:36.856Z,95.50
2018-07-25T22:15:05.872Z,95.70
2018-07-25T22:17:34.008Z,96.00
2018-07-25T22:20:02.175Z,95.60
2018-07-25T22:22:30.292Z,95.70
2018-07-25T22:24:58.399Z,95.90
2018-07-25T22:27:26.515Z,96.20
2018-07-25T22:29:54.649Z,96.20
2018-07-25T22:32:22.741Z,96.50
2018-07-25T22:34:50.884Z,96.70
2018-07-25T22:37:19.005Z,97.30
2018-07-25T22:39:47.102Z,97.40
2018-07-25T22:42:15.196Z,97.80
2018-07-25T22:44:43.295Z,98.30
2018-07-25T22:47:11.397Z,98.30
2018-07-25T22:49:39.500Z,98.20
2018-07-25T22:52:07.600Z,98.10
2018-07-25T22:54:35.707Z,98.00
2018-07-25T22:57:03.797Z,98.00
2018-07-25T22:59:31.905Z,98.10
2018-07-25T23:02:00.015Z,98.40
2018-07-25T23:04:28.223Z,98.50
2018-07-25T23:06:56.333Z,98.80
2018-07-25T23:09:24.445Z,98.90
2018-07-25T23:11:52.537Z,99.00
2018-07-25T23:14:20.675Z,99.10
2018-07-25T23:16:48.785Z,99.30
2018-07-25T23:19:16.904Z,99.60
2018-07-25T23:21:44.999Z,99.80
2018-07-25T23:24:13.091Z,99.90
2018-07-25T23:26:41.175Z,99.90
2018-07-25T23:29:09.287Z,99.90
2018-07-25T23:31:37.394Z,99.90
2018-07-25T23:34:05.484Z,99.90
2018-07-25T23:36:33.596Z,99.90
2018-07-25T23:39:01.769Z,99.90
2018-07-25T23:41:29.875Z,99.90
2018-07-25T23:43:58.058Z,99.90
2018-07-25T23:46:26.152Z,99.90
2018-07-25T23:48:54.266Z,99.90
2018-07-25T23:51:22.434Z,99.90
2018-07-25T23:53:50.546Z,99.90
2018-07-25T23:56:18.647Z,99.90
2018-07-25T23:58:46.777Z,99.90
